sensor_id;sensor_type;location;lat;lon;timestamp;P1;durP1;ratioP1;P2;durP2;ratioP2
63046;SDS011;62025;39.238;9.126;2023-04-03T00:00:30;6.35;;;1.27;;
63046;SDS011;62025;39.238;9.126;2023-04-03T00:02:57;8.32;;;1.50;;
63046;SDS011;62025;39.238;9.126;2023-04-03T00:05:23;10.65;;;1.95;;
63046;SDS011;62025;39.238;9.126;2023-04-03T00:07:49;5.13;;;1.40;;
63046;SDS011;62025;39.238;9.126;2023-04-03T00:10:15;5.15;;;1.38;;
63046;SDS011;62025;39.238;9.126;2023-04-03T00:12:41;8.90;;;2.03;;
63046;SDS011;62025;39.238;9.126;2023-04-03T00:15:08;8.30;;;1.60;;
63046;SDS011;62025;39.238;9.126;2023-04-03T00:17:34;7.65;;;1.40;;
63046;SDS011;62025;39.238;9.126;2023-04-03T00:20:00;6.15;;;1.67;;
63046;SDS011;62025;39.238;9.126;2023-04-03T00:22:28;6.75;;;1.15;;
63046;SDS011;62025;39.238;9.126;2023-04-03T00:24:54;5.25;;;1.33;;
63046;SDS011;62025;39.238;9.126;2023-04-03T00:27:20;6.57;;;1.73;;
63046;SDS011;62025;39.238;9.126;2023-04-03T00:29:47;8.50;;;1.73;;
63046;SDS011;62025;39.238;9.126;2023-04-03T00:32:13;4.10;;;1.27;;
63046;SDS011;62025;39.238;9.126;2023-04-03T00:34:39;6.32;;;1.20;;
63046;SDS011;62025;39.238;9.126;2023-04-03T00:37:05;7.70;;;1.27;;
63046;SDS011;62025;39.238;9.126;2023-04-03T00:39:31;7.97;;;1.33;;
63046;SDS011;62025;39.238;9.126;2023-04-03T00:41:57;7.10;;;1.77;;
63046;SDS011;62025;39.238;9.126;2023-04-03T00:46:53;5.20;;;1.50;;
63046;SDS011;62025;39.238;9.126;2023-04-03T00:49:20;6.80;;;1.35;;
63046;SDS011;62025;39.238;9.126;2023-04-03T00:51:46;5.32;;;1.70;;
63046;SDS011;62025;39.238;9.126;2023-04-03T00:54:12;9.52;;;1.70;;
63046;SDS011;62025;39.238;9.126;2023-04-03T00:56:39;3.58;;;1.23;;
63046;SDS011;62025;39.238;9.126;2023-04-03T00:59:13;7.50;;;1.50;;
63046;SDS011;62025;39.238;9.126;2023-04-03T01:01:48;5.63;;;1.40;;
63046;SDS011;62025;39.238;9.126;2023-04-03T01:04:31;8.82;;;1.30;;
63046;SDS011;62025;39.238;9.126;2023-04-03T01:07:09;4.70;;;1.45;;
63046;SDS011;62025;39.238;9.126;2023-04-03T01:09:43;5.63;;;1.20;;
63046;SDS011;62025;39.238;9.126;2023-04-03T01:12:13;8.93;;;1.58;;
63046;SDS011;62025;39.238;9.126;2023-04-03T01:14:59;4.72;;;1.65;;
63046;SDS011;62025;39.238;9.126;2023-04-03T01:25:33;6.20;;;1.52;;
63046;SDS011;62025;39.238;9.126;2023-04-03T01:28:03;6.78;;;1.50;;
63046;SDS011;62025;39.238;9.126;2023-04-03T01:30:33;5.23;;;1.20;;
63046;SDS011;62025;39.238;9.126;2023-04-03T01:33:13;10.05;;;1.65;;
63046;SDS011;62025;39.238;9.126;2023-04-03T01:35:39;9.63;;;1.40;;
63046;SDS011;62025;39.238;9.126;2023-04-03T01:38:06;5.70;;;1.38;;
63046;SDS011;62025;39.238;9.126;2023-04-03T01:40:32;6.75;;;1.55;;
63046;SDS011;62025;39.238;9.126;2023-04-03T01:42:58;8.57;;;1.65;;
63046;SDS011;62025;39.238;9.126;2023-04-03T01:45:24;7.60;;;1.48;;
63046;SDS011;62025;39.238;9.126;2023-04-03T01:47:50;4.25;;;1.23;;
63046;SDS011;62025;39.238;9.126;2023-04-03T01:50:16;6.20;;;1.55;;
63046;SDS011;62025;39.238;9.126;2023-04-03T01:52:43;7.63;;;1.40;;
63046;SDS011;62025;39.238;9.126;2023-04-03T01:55:09;4.93;;;1.20;;
63046;SDS011;62025;39.238;9.126;2023-04-03T01:57:35;7.28;;;1.40;;
63046;SDS011;62025;39.238;9.126;2023-04-03T02:00:02;10.35;;;1.55;;
63046;SDS011;62025;39.238;9.126;2023-04-03T02:02:38;6.18;;;1.35;;
63046;SDS011;62025;39.238;9.126;2023-04-03T02:05:05;6.57;;;1.30;;
63046;SDS011;62025;39.238;9.126;2023-04-03T02:07:31;6.18;;;1.20;;
63046;SDS011;62025;39.238;9.126;2023-04-03T02:09:57;6.25;;;1.30;;
63046;SDS011;62025;39.238;9.126;2023-04-03T02:12:23;5.82;;;1.38;;
63046;SDS011;62025;39.238;9.126;2023-04-03T02:14:49;9.05;;;2.03;;
63046;SDS011;62025;39.238;9.126;2023-04-03T02:17:15;9.23;;;1.63;;
63046;SDS011;62025;39.238;9.126;2023-04-03T02:19:41;6.00;;;1.17;;
63046;SDS011;62025;39.238;9.126;2023-04-03T02:22:07;4.82;;;1.02;;
63046;SDS011;62025;39.238;9.126;2023-04-03T02:24:34;4.28;;;1.13;;
63046;SDS011;62025;39.238;9.126;2023-04-03T02:27:00;6.78;;;1.20;;
63046;SDS011;62025;39.238;9.126;2023-04-03T02:29:27;6.60;;;1.35;;
63046;SDS011;62025;39.238;9.126;2023-04-03T02:31:53;6.70;;;1.40;;
63046;SDS011;62025;39.238;9.126;2023-04-03T02:34:21;5.80;;;1.10;;
63046;SDS011;62025;39.238;9.126;2023-04-03T02:36:48;6.00;;;1.17;;
63046;SDS011;62025;39.238;9.126;2023-04-03T02:39:15;7.18;;;1.17;;
63046;SDS011;62025;39.238;9.126;2023-04-03T02:41:41;5.55;;;1.52;;
63046;SDS011;62025;39.238;9.126;2023-04-03T02:44:13;11.35;;;1.63;;
63046;SDS011;62025;39.238;9.126;2023-04-03T02:46:39;5.32;;;1.30;;
63046;SDS011;62025;39.238;9.126;2023-04-03T02:49:05;6.65;;;1.52;;
63046;SDS011;62025;39.238;9.126;2023-04-03T02:51:31;4.65;;;1.10;;
63046;SDS011;62025;39.238;9.126;2023-04-03T02:53:58;8.88;;;1.60;;
63046;SDS011;62025;39.238;9.126;2023-04-03T02:56:28;7.50;;;1.23;;
63046;SDS011;62025;39.238;9.126;2023-04-03T02:58:54;8.20;;;1.10;;
63046;SDS011;62025;39.238;9.126;2023-04-03T03:01:20;9.23;;;1.45;;
63046;SDS011;62025;39.238;9.126;2023-04-03T03:03:46;7.57;;;1.30;;
63046;SDS011;62025;39.238;9.126;2023-04-03T03:06:14;8.23;;;1.63;;
63046;SDS011;62025;39.238;9.126;2023-04-03T03:08:42;7.40;;;1.38;;
63046;SDS011;62025;39.238;9.126;2023-04-03T03:11:09;7.03;;;1.40;;
63046;SDS011;62025;39.238;9.126;2023-04-03T03:13:35;3.75;;;1.10;;
63046;SDS011;62025;39.238;9.126;2023-04-03T03:16:02;7.50;;;1.63;;
63046;SDS011;62025;39.238;9.126;2023-04-03T03:18:28;7.10;;;1.30;;
63046;SDS011;62025;39.238;9.126;2023-04-03T03:20:56;9.27;;;1.30;;
63046;SDS011;62025;39.238;9.126;2023-04-03T03:23:24;4.65;;;1.42;;
63046;SDS011;62025;39.238;9.126;2023-04-03T03:25:56;6.68;;;1.33;;
63046;SDS011;62025;39.238;9.126;2023-04-03T03:28:40;6.18;;;1.15;;
63046;SDS011;62025;39.238;9.126;2023-04-03T03:31:06;9.43;;;2.00;;
63046;SDS011;62025;39.238;9.126;2023-04-03T03:33:36;6.15;;;1.40;;
63046;SDS011;62025;39.238;9.126;2023-04-03T03:36:02;6.93;;;1.13;;
63046;SDS011;62025;39.238;9.126;2023-04-03T03:38:28;5.38;;;1.48;;
63046;SDS011;62025;39.238;9.126;2023-04-03T03:40:55;5.82;;;1.35;;
63046;SDS011;62025;39.238;9.126;2023-04-03T03:43:22;5.72;;;1.38;;
63046;SDS011;62025;39.238;9.126;2023-04-03T03:45:51;6.78;;;1.27;;
63046;SDS011;62025;39.238;9.126;2023-04-03T03:48:18;5.00;;;1.42;;
63046;SDS011;62025;39.238;9.126;2023-04-03T03:50:46;8.45;;;1.33;;
63046;SDS011;62025;39.238;9.126;2023-04-03T03:53:13;8.88;;;1.60;;
63046;SDS011;62025;39.238;9.126;2023-04-03T03:55:40;8.60;;;1.48;;
63046;SDS011;62025;39.238;9.126;2023-04-03T03:58:07;12.02;;;1.50;;
63046;SDS011;62025;39.238;9.126;2023-04-03T04:00:34;7.90;;;1.35;;
63046;SDS011;62025;39.238;9.126;2023-04-03T04:03:00;6.25;;;1.40;;
63046;SDS011;62025;39.238;9.126;2023-04-03T04:05:28;7.50;;;1.45;;
63046;SDS011;62025;39.238;9.126;2023-04-03T04:07:55;6.38;;;1.67;;
63046;SDS011;62025;39.238;9.126;2023-04-03T04:10:22;5.30;;;1.13;;
63046;SDS011;62025;39.238;9.126;2023-04-03T04:12:48;9.77;;;1.40;;
63046;SDS011;62025;39.238;9.126;2023-04-03T04:15:17;5.85;;;1.50;;
63046;SDS011;62025;39.238;9.126;2023-04-03T04:17:43;7.75;;;1.40;;
63046;SDS011;62025;39.238;9.126;2023-04-03T04:20:11;7.82;;;1.67;;
63046;SDS011;62025;39.238;9.126;2023-04-03T04:22:38;6.05;;;1.25;;
63046;SDS011;62025;39.238;9.126;2023-04-03T04:25:05;11.48;;;1.88;;
63046;SDS011;62025;39.238;9.126;2023-04-03T04:27:32;8.13;;;1.40;;
63046;SDS011;62025;39.238;9.126;2023-04-03T04:29:58;8.40;;;1.52;;
63046;SDS011;62025;39.238;9.126;2023-04-03T04:32:25;6.72;;;1.58;;
63046;SDS011;62025;39.238;9.126;2023-04-03T04:34:51;6.82;;;1.85;;
63046;SDS011;62025;39.238;9.126;2023-04-03T04:37:17;8.65;;;1.67;;
63046;SDS011;62025;39.238;9.126;2023-04-03T04:39:45;6.50;;;1.45;;
63046;SDS011;62025;39.238;9.126;2023-04-03T04:42:11;9.88;;;2.17;;
63046;SDS011;62025;39.238;9.126;2023-04-03T04:44:39;9.75;;;2.25;;
63046;SDS011;62025;39.238;9.126;2023-04-03T04:47:07;11.60;;;1.80;;
63046;SDS011;62025;39.238;9.126;2023-04-03T04:49:33;7.80;;;1.58;;
63046;SDS011;62025;39.238;9.126;2023-04-03T04:51:59;9.20;;;1.65;;
63046;SDS011;62025;39.238;9.126;2023-04-03T04:54:29;5.72;;;1.70;;
63046;SDS011;62025;39.238;9.126;2023-04-03T04:56:56;9.63;;;1.70;;
63046;SDS011;62025;39.238;9.126;2023-04-03T04:59:23;7.55;;;1.73;;
63046;SDS011;62025;39.238;9.126;2023-04-03T05:01:51;5.68;;;1.40;;
63046;SDS011;62025;39.238;9.126;2023-04-03T05:04:17;6.93;;;1.42;;
63046;SDS011;62025;39.238;9.126;2023-04-03T05:06:47;7.93;;;1.67;;
63046;SDS011;62025;39.238;9.126;2023-04-03T05:09:19;12.65;;;1.83;;
63046;SDS011;62025;39.238;9.126;2023-04-03T05:11:47;7.50;;;1.45;;
63046;SDS011;62025;39.238;9.126;2023-04-03T05:14:15;7.43;;;1.30;;
63046;SDS011;62025;39.238;9.126;2023-04-03T05:16:42;9.73;;;1.77;;
63046;SDS011;62025;39.238;9.126;2023-04-03T05:19:08;8.02;;;1.85;;
63046;SDS011;62025;39.238;9.126;2023-04-03T05:21:34;9.13;;;2.15;;
63046;SDS011;62025;39.238;9.126;2023-04-03T05:24:05;7.88;;;1.92;;
63046;SDS011;62025;39.238;9.126;2023-04-03T05:26:37;7.07;;;1.88;;
63046;SDS011;62025;39.238;9.126;2023-04-03T05:29:04;8.68;;;1.83;;
63046;SDS011;62025;39.238;9.126;2023-04-03T05:31:31;6.38;;;1.60;;
63046;SDS011;62025;39.238;9.126;2023-04-03T05:33:57;8.77;;;1.75;;
63046;SDS011;62025;39.238;9.126;2023-04-03T05:36:25;7.83;;;1.80;;
63046;SDS011;62025;39.238;9.126;2023-04-03T05:38:56;10.68;;;2.33;;
63046;SDS011;62025;39.238;9.126;2023-04-03T05:41:24;9.35;;;1.98;;
63046;SDS011;62025;39.238;9.126;2023-04-03T05:43:50;6.82;;;2.03;;
63046;SDS011;62025;39.238;9.126;2023-04-03T05:46:18;9.88;;;2.00;;
63046;SDS011;62025;39.238;9.126;2023-04-03T05:48:50;8.82;;;1.75;;
63046;SDS011;62025;39.238;9.126;2023-04-03T05:51:24;14.82;;;2.15;;
63046;SDS011;62025;39.238;9.126;2023-04-03T05:54:03;8.60;;;2.03;;
63046;SDS011;62025;39.238;9.126;2023-04-03T05:56:45;8.20;;;1.70;;
63046;SDS011;62025;39.238;9.126;2023-04-03T05:59:12;7.70;;;1.77;;
63046;SDS011;62025;39.238;9.126;2023-04-03T06:01:38;6.15;;;1.58;;
63046;SDS011;62025;39.238;9.126;2023-04-03T06:04:04;11.70;;;2.25;;
63046;SDS011;62025;39.238;9.126;2023-04-03T06:09:21;9.32;;;1.95;;
63046;SDS011;62025;39.238;9.126;2023-04-03T06:11:51;11.70;;;2.03;;
63046;SDS011;62025;39.238;9.126;2023-04-03T06:14:21;9.10;;;1.60;;
63046;SDS011;62025;39.238;9.126;2023-04-03T06:16:47;7.97;;;1.70;;
63046;SDS011;62025;39.238;9.126;2023-04-03T06:19:13;7.38;;;1.73;;
63046;SDS011;62025;39.238;9.126;2023-04-03T06:21:45;9.70;;;2.03;;
63046;SDS011;62025;39.238;9.126;2023-04-03T06:24:13;10.07;;;1.65;;
63046;SDS011;62025;39.238;9.126;2023-04-03T06:26:41;8.52;;;2.25;;
63046;SDS011;62025;39.238;9.126;2023-04-03T06:29:08;4.95;;;1.45;;
63046;SDS011;62025;39.238;9.126;2023-04-03T06:31:34;6.75;;;2.45;;
63046;SDS011;62025;39.238;9.126;2023-04-03T06:34:01;9.35;;;1.83;;
63046;SDS011;62025;39.238;9.126;2023-04-03T06:36:29;8.00;;;1.73;;
63046;SDS011;62025;39.238;9.126;2023-04-03T06:38:55;9.18;;;2.70;;
63046;SDS011;62025;39.238;9.126;2023-04-03T06:41:21;10.23;;;2.55;;
63046;SDS011;62025;39.238;9.126;2023-04-03T06:43:47;15.98;;;2.75;;
63046;SDS011;62025;39.238;9.126;2023-04-03T06:46:14;14.98;;;2.05;;
63046;SDS011;62025;39.238;9.126;2023-04-03T06:48:46;15.00;;;2.38;;
63046;SDS011;62025;39.238;9.126;2023-04-03T06:51:21;9.00;;;1.88;;
63046;SDS011;62025;39.238;9.126;2023-04-03T06:53:54;8.95;;;2.30;;
63046;SDS011;62025;39.238;9.126;2023-04-03T06:56:23;9.38;;;2.10;;
63046;SDS011;62025;39.238;9.126;2023-04-03T06:58:51;13.10;;;2.60;;
63046;SDS011;62025;39.238;9.126;2023-04-03T07:01:20;13.25;;;2.15;;
63046;SDS011;62025;39.238;9.126;2023-04-03T07:03:47;11.13;;;2.42;;
63046;SDS011;62025;39.238;9.126;2023-04-03T07:06:14;8.27;;;1.95;;
63046;SDS011;62025;39.238;9.126;2023-04-03T07:08:41;13.13;;;2.30;;
63046;SDS011;62025;39.238;9.126;2023-04-03T07:11:09;7.72;;;2.17;;
63046;SDS011;62025;39.238;9.126;2023-04-03T07:13:37;12.05;;;2.42;;
63046;SDS011;62025;39.238;9.126;2023-04-03T07:16:04;8.77;;;2.40;;
63046;SDS011;62025;39.238;9.126;2023-04-03T07:18:31;10.18;;;2.33;;
63046;SDS011;62025;39.238;9.126;2023-04-03T07:20:58;6.38;;;3.60;;
63046;SDS011;62025;39.238;9.126;2023-04-03T07:23:25;10.90;;;3.08;;
63046;SDS011;62025;39.238;9.126;2023-04-03T07:25:51;15.27;;;2.63;;
63046;SDS011;62025;39.238;9.126;2023-04-03T07:28:19;8.65;;;2.03;;
63046;SDS011;62025;39.238;9.126;2023-04-03T07:30:48;6.80;;;1.60;;
63046;SDS011;62025;39.238;9.126;2023-04-03T07:33:17;9.52;;;1.90;;
63046;SDS011;62025;39.238;9.126;2023-04-03T07:35:45;7.70;;;1.98;;
63046;SDS011;62025;39.238;9.126;2023-04-03T07:38:11;10.40;;;2.40;;
63046;SDS011;62025;39.238;9.126;2023-04-03T07:40:38;8.05;;;2.20;;
63046;SDS011;62025;39.238;9.126;2023-04-03T07:43:05;9.60;;;2.08;;
63046;SDS011;62025;39.238;9.126;2023-04-03T07:45:32;7.90;;;2.03;;
63046;SDS011;62025;39.238;9.126;2023-04-03T07:48:00;9.45;;;1.70;;
63046;SDS011;62025;39.238;9.126;2023-04-03T07:50:26;7.80;;;1.58;;
63046;SDS011;62025;39.238;9.126;2023-04-03T07:52:52;7.13;;;1.80;;
63046;SDS011;62025;39.238;9.126;2023-04-03T07:57:47;10.25;;;1.70;;
63046;SDS011;62025;39.238;9.126;2023-04-03T08:00:14;7.70;;;1.88;;
63046;SDS011;62025;39.238;9.126;2023-04-03T08:02:43;8.45;;;1.75;;
63046;SDS011;62025;39.238;9.126;2023-04-03T08:05:10;7.30;;;2.08;;
63046;SDS011;62025;39.238;9.126;2023-04-03T08:07:39;13.38;;;2.00;;
63046;SDS011;62025;39.238;9.126;2023-04-03T08:10:05;5.88;;;1.80;;
63046;SDS011;62025;39.238;9.126;2023-04-03T08:12:32;9.55;;;2.30;;
63046;SDS011;62025;39.238;9.126;2023-04-03T08:14:59;9.82;;;2.30;;
63046;SDS011;62025;39.238;9.126;2023-04-03T08:17:26;11.43;;;2.13;;
63046;SDS011;62025;39.238;9.126;2023-04-03T08:19:52;7.35;;;1.83;;
63046;SDS011;62025;39.238;9.126;2023-04-03T08:22:18;4.35;;;1.40;;
63046;SDS011;62025;39.238;9.126;2023-04-03T08:24:44;8.20;;;1.83;;
63046;SDS011;62025;39.238;9.126;2023-04-03T08:27:11;6.43;;;1.55;;
63046;SDS011;62025;39.238;9.126;2023-04-03T08:29:37;11.23;;;1.75;;
63046;SDS011;62025;39.238;9.126;2023-04-03T08:32:03;9.00;;;1.63;;
63046;SDS011;62025;39.238;9.126;2023-04-03T08:34:30;9.05;;;1.60;;
63046;SDS011;62025;39.238;9.126;2023-04-03T08:37:00;8.85;;;1.75;;
63046;SDS011;62025;39.238;9.126;2023-04-03T08:39:27;7.05;;;1.65;;
63046;SDS011;62025;39.238;9.126;2023-04-03T08:41:54;6.75;;;1.83;;
63046;SDS011;62025;39.238;9.126;2023-04-03T08:44:33;4.93;;;1.40;;
63046;SDS011;62025;39.238;9.126;2023-04-03T08:49:51;5.85;;;1.70;;
63046;SDS011;62025;39.238;9.126;2023-04-03T09:00:51;4.28;;;1.60;;
63046;SDS011;62025;39.238;9.126;2023-04-03T09:03:23;5.28;;;1.73;;
63046;SDS011;62025;39.238;9.126;2023-04-03T09:22:42;2.30;;;1.40;;
63046;SDS011;62025;39.238;9.126;2023-04-03T09:24:47;6.50;;;2.00;;
63046;SDS011;62025;39.238;9.126;2023-04-03T09:27:23;3.28;;;1.40;;
63046;SDS011;62025;39.238;9.126;2023-04-03T09:29:49;3.72;;;1.17;;
63046;SDS011;62025;39.238;9.126;2023-04-03T09:32:25;5.13;;;1.45;;
63046;SDS011;62025;39.238;9.126;2023-04-03T09:34:57;4.00;;;1.30;;
63046;SDS011;62025;39.238;9.126;2023-04-03T09:37:49;3.17;;;1.15;;
63046;SDS011;62025;39.238;9.126;2023-04-03T09:45:53;3.03;;;1.48;;
63046;SDS011;62025;39.238;9.126;2023-04-03T09:53:34;3.00;;;1.40;;
63046;SDS011;62025;39.238;9.126;2023-04-03T09:56:04;3.20;;;1.40;;
63046;SDS011;62025;39.238;9.126;2023-04-03T09:59:15;5.28;;;1.80;;
63046;SDS011;62025;39.238;9.126;2023-04-03T10:01:42;3.10;;;1.40;;
63046;SDS011;62025;39.238;9.126;2023-04-03T10:04:27;3.05;;;1.35;;
63046;SDS011;62025;39.238;9.126;2023-04-03T10:07:25;4.45;;;1.38;;
63046;SDS011;62025;39.238;9.126;2023-04-03T10:10:23;4.47;;;1.73;;
63046;SDS011;62025;39.238;9.126;2023-04-03T10:13:03;3.92;;;1.60;;
63046;SDS011;62025;39.238;9.126;2023-04-03T10:15:48;7.43;;;1.70;;
63046;SDS011;62025;39.238;9.126;2023-04-03T10:20:57;4.07;;;1.48;;
63046;SDS011;62025;39.238;9.126;2023-04-03T10:34:48;3.85;;;1.33;;
63046;SDS011;62025;39.238;9.126;2023-04-03T10:37:39;4.40;;;1.65;;
63046;SDS011;62025;39.238;9.126;2023-04-03T10:43:38;3.80;;;1.80;;
63046;SDS011;62025;39.238;9.126;2023-04-03T10:54:46;5.38;;;1.60;;
63046;SDS011;62025;39.238;9.126;2023-04-03T10:57:38;3.60;;;1.30;;
63046;SDS011;62025;39.238;9.126;2023-04-03T11:00:30;5.45;;;1.80;;
63046;SDS011;62025;39.238;9.126;2023-04-03T11:03:15;3.58;;;1.50;;
63046;SDS011;62025;39.238;9.126;2023-04-03T11:05:57;4.50;;;1.58;;
63046;SDS011;62025;39.238;9.126;2023-04-03T11:11:33;3.50;;;1.40;;
63046;SDS011;62025;39.238;9.126;2023-04-03T11:14:05;4.07;;;1.40;;
63046;SDS011;62025;39.238;9.126;2023-04-03T11:17:11;3.58;;;1.23;;
63046;SDS011;62025;39.238;9.126;2023-04-03T11:22:29;4.30;;;1.38;;
63046;SDS011;62025;39.238;9.126;2023-04-03T11:36:41;2.22;;;1.30;;
63046;SDS011;62025;39.238;9.126;2023-04-03T11:39:20;2.58;;;1.30;;
63046;SDS011;62025;39.238;9.126;2023-04-03T11:41:52;1.60;;;1.30;;
63046;SDS011;62025;39.238;9.126;2023-04-03T11:44:28;3.10;;;1.10;;
63046;SDS011;62025;39.238;9.126;2023-04-03T11:47:02;3.50;;;1.40;;
63046;SDS011;62025;39.238;9.126;2023-04-03T12:14:20;2.55;;;0.95;;
63046;SDS011;62025;39.238;9.126;2023-04-03T12:16:28;2.13;;;1.02;;
63046;SDS011;62025;39.238;9.126;2023-04-03T12:26:43;3.72;;;1.25;;
63046;SDS011;62025;39.238;9.126;2023-04-03T12:32:44;4.80;;;1.40;;
63046;SDS011;62025;39.238;9.126;2023-04-03T12:35:37;5.18;;;1.40;;
63046;SDS011;62025;39.238;9.126;2023-04-03T12:38:19;4.18;;;1.48;;
63046;SDS011;62025;39.238;9.126;2023-04-03T12:41:11;2.47;;;1.13;;
63046;SDS011;62025;39.238;9.126;2023-04-03T12:47:16;5.00;;;1.52;;
63046;SDS011;62025;39.238;9.126;2023-04-03T12:49:53;3.67;;;1.20;;
63046;SDS011;62025;39.238;9.126;2023-04-03T12:52:30;3.13;;;1.38;;
63046;SDS011;62025;39.238;9.126;2023-04-03T12:55:07;3.40;;;1.63;;
63046;SDS011;62025;39.238;9.126;2023-04-03T12:57:40;3.72;;;1.45;;
63046;SDS011;62025;39.238;9.126;2023-04-03T13:02:59;4.95;;;1.25;;
63046;SDS011;62025;39.238;9.126;2023-04-03T13:05:29;3.35;;;1.33;;
63046;SDS011;62025;39.238;9.126;2023-04-03T13:07:58;5.40;;;1.42;;
63046;SDS011;62025;39.238;9.126;2023-04-03T13:10:29;2.65;;;1.42;;
63046;SDS011;62025;39.238;9.126;2023-04-03T13:12:57;5.55;;;1.35;;
63046;SDS011;62025;39.238;9.126;2023-04-03T13:15:47;2.67;;;1.27;;
63046;SDS011;62025;39.238;9.126;2023-04-03T13:18:26;4.68;;;1.40;;
63046;SDS011;62025;39.238;9.126;2023-04-03T13:20:57;4.30;;;1.52;;
63046;SDS011;62025;39.238;9.126;2023-04-03T13:23:29;4.30;;;1.33;;
63046;SDS011;62025;39.238;9.126;2023-04-03T13:25:57;5.82;;;2.17;;
63046;SDS011;62025;39.238;9.126;2023-04-03T13:28:29;4.40;;;1.40;;
63046;SDS011;62025;39.238;9.126;2023-04-03T13:31:01;5.55;;;1.27;;
63046;SDS011;62025;39.238;9.126;2023-04-03T13:33:32;5.28;;;1.52;;
63046;SDS011;62025;39.238;9.126;2023-04-03T13:36:04;4.10;;;1.52;;
63046;SDS011;62025;39.238;9.126;2023-04-03T13:41:47;2.17;;;1.23;;
63046;SDS011;62025;39.238;9.126;2023-04-03T13:46:51;5.55;;;1.75;;
63046;SDS011;62025;39.238;9.126;2023-04-03T13:49:45;6.45;;;1.38;;
63046;SDS011;62025;39.238;9.126;2023-04-03T13:52:31;3.03;;;1.10;;
63046;SDS011;62025;39.238;9.126;2023-04-03T14:03:02;2.72;;;1.08;;
63046;SDS011;62025;39.238;9.126;2023-04-03T14:05:47;3.85;;;1.20;;
63046;SDS011;62025;39.238;9.126;2023-04-03T14:08:14;2.75;;;1.00;;
63046;SDS011;62025;39.238;9.126;2023-04-03T14:10:41;5.07;;;1.38;;
63046;SDS011;62025;39.238;9.126;2023-04-03T14:13:09;3.80;;;1.20;;
63046;SDS011;62025;39.238;9.126;2023-04-03T14:15:41;4.15;;;1.17;;
63046;SDS011;62025;39.238;9.126;2023-04-03T14:18:16;6.47;;;1.50;;
63046;SDS011;62025;39.238;9.126;2023-04-03T14:20:46;5.35;;;1.42;;
63046;SDS011;62025;39.238;9.126;2023-04-03T14:23:13;5.03;;;1.45;;
63046;SDS011;62025;39.238;9.126;2023-04-03T14:25:39;5.25;;;1.50;;
63046;SDS011;62025;39.238;9.126;2023-04-03T14:28:14;6.22;;;1.77;;
63046;SDS011;62025;39.238;9.126;2023-04-03T14:30:46;3.42;;;1.27;;
63046;SDS011;62025;39.238;9.126;2023-04-03T14:33:15;6.15;;;1.65;;
63046;SDS011;62025;39.238;9.126;2023-04-03T14:35:45;5.38;;;1.60;;
63046;SDS011;62025;39.238;9.126;2023-04-03T14:38:16;4.05;;;1.42;;
63046;SDS011;62025;39.238;9.126;2023-04-03T14:40:54;7.32;;;1.25;;
63046;SDS011;62025;39.238;9.126;2023-04-03T14:43:21;3.78;;;1.27;;
63046;SDS011;62025;39.238;9.126;2023-04-03T14:45:48;5.35;;;1.52;;
63046;SDS011;62025;39.238;9.126;2023-04-03T14:48:20;2.47;;;1.10;;
63046;SDS011;62025;39.238;9.126;2023-04-03T14:50:49;5.38;;;1.33;;
63046;SDS011;62025;39.238;9.126;2023-04-03T14:53:17;4.68;;;1.50;;
63046;SDS011;62025;39.238;9.126;2023-04-03T14:55:48;6.35;;;1.50;;
63046;SDS011;62025;39.238;9.126;2023-04-03T14:58:15;2.08;;;1.33;;
63046;SDS011;62025;39.238;9.126;2023-04-03T15:00:44;2.42;;;1.20;;
63046;SDS011;62025;39.238;9.126;2023-04-03T15:03:15;6.82;;;1.58;;
63046;SDS011;62025;39.238;9.126;2023-04-03T15:05:44;11.38;;;1.58;;
63046;SDS011;62025;39.238;9.126;2023-04-03T15:08:20;9.60;;;2.10;;
63046;SDS011;62025;39.238;9.126;2023-04-03T15:10:49;6.82;;;1.50;;
63046;SDS011;62025;39.238;9.126;2023-04-03T15:15:44;11.25;;;1.48;;
63046;SDS011;62025;39.238;9.126;2023-04-03T15:18:22;6.35;;;1.45;;
63046;SDS011;62025;39.238;9.126;2023-04-03T15:20:53;5.10;;;0.93;;
63046;SDS011;62025;39.238;9.126;2023-04-03T15:23:20;6.82;;;1.40;;
63046;SDS011;62025;39.238;9.126;2023-04-03T15:25:51;5.35;;;1.33;;
63046;SDS011;62025;39.238;9.126;2023-04-03T15:28:37;7.30;;;1.40;;
63046;SDS011;62025;39.238;9.126;2023-04-03T15:31:09;5.55;;;1.15;;
63046;SDS011;62025;39.238;9.126;2023-04-03T15:33:35;4.97;;;1.10;;
63046;SDS011;62025;39.238;9.126;2023-04-03T15:36:02;3.63;;;1.45;;
63046;SDS011;62025;39.238;9.126;2023-04-03T15:38:29;7.97;;;1.40;;
63046;SDS011;62025;39.238;9.126;2023-04-03T15:40:55;7.00;;;1.50;;
63046;SDS011;62025;39.238;9.126;2023-04-03T15:43:21;7.93;;;1.30;;
63046;SDS011;62025;39.238;9.126;2023-04-03T15:45:48;4.40;;;1.20;;
63046;SDS011;62025;39.238;9.126;2023-04-03T15:48:15;4.30;;;1.25;;
63046;SDS011;62025;39.238;9.126;2023-04-03T15:50:43;4.45;;;1.60;;
63046;SDS011;62025;39.238;9.126;2023-04-03T15:53:09;6.50;;;1.70;;
63046;SDS011;62025;39.238;9.126;2023-04-03T15:55:36;7.30;;;1.40;;
63046;SDS011;62025;39.238;9.126;2023-04-03T15:58:03;7.53;;;1.60;;
63046;SDS011;62025;39.238;9.126;2023-04-03T16:00:30;6.60;;;1.40;;
63046;SDS011;62025;39.238;9.126;2023-04-03T16:03:01;4.47;;;1.35;;
63046;SDS011;62025;39.238;9.126;2023-04-03T16:05:31;3.65;;;2.00;;
63046;SDS011;62025;39.238;9.126;2023-04-03T16:07:59;5.72;;;1.90;;
63046;SDS011;62025;39.238;9.126;2023-04-03T16:10:26;4.43;;;1.83;;
63046;SDS011;62025;39.238;9.126;2023-04-03T16:12:53;6.47;;;2.05;;
63046;SDS011;62025;39.238;9.126;2023-04-03T16:15:19;8.05;;;1.83;;
63046;SDS011;62025;39.238;9.126;2023-04-03T16:17:45;5.47;;;2.20;;
63046;SDS011;62025;39.238;9.126;2023-04-03T16:20:13;5.13;;;1.77;;
63046;SDS011;62025;39.238;9.126;2023-04-03T16:22:40;4.25;;;2.08;;
63046;SDS011;62025;39.238;9.126;2023-04-03T16:25:07;4.82;;;1.48;;
63046;SDS011;62025;39.238;9.126;2023-04-03T16:27:34;9.43;;;3.55;;
63046;SDS011;62025;39.238;9.126;2023-04-03T16:30:00;5.63;;;2.30;;
63046;SDS011;62025;39.238;9.126;2023-04-03T16:32:27;3.55;;;1.88;;
63046;SDS011;62025;39.238;9.126;2023-04-03T16:34:56;3.60;;;1.83;;
63046;SDS011;62025;39.238;9.126;2023-04-03T16:37:22;9.85;;;3.85;;
63046;SDS011;62025;39.238;9.126;2023-04-03T16:39:48;5.10;;;3.40;;
63046;SDS011;62025;39.238;9.126;2023-04-03T16:42:15;4.57;;;2.60;;
63046;SDS011;62025;39.238;9.126;2023-04-03T16:44:41;5.60;;;2.70;;
63046;SDS011;62025;39.238;9.126;2023-04-03T16:47:07;9.02;;;2.60;;
63046;SDS011;62025;39.238;9.126;2023-04-03T16:49:34;6.05;;;2.47;;
63046;SDS011;62025;39.238;9.126;2023-04-03T16:52:01;8.50;;;2.50;;
63046;SDS011;62025;39.238;9.126;2023-04-03T16:54:29;6.50;;;2.28;;
63046;SDS011;62025;39.238;9.126;2023-04-03T16:56:56;10.32;;;3.00;;
63046;SDS011;62025;39.238;9.126;2023-04-03T16:59:23;8.25;;;2.70;;
63046;SDS011;62025;39.238;9.126;2023-04-03T17:01:49;12.93;;;3.95;;
63046;SDS011;62025;39.238;9.126;2023-04-03T17:04:15;14.57;;;2.95;;
63046;SDS011;62025;39.238;9.126;2023-04-03T17:06:42;11.05;;;3.13;;
63046;SDS011;62025;39.238;9.126;2023-04-03T17:09:07;10.65;;;3.10;;
63046;SDS011;62025;39.238;9.126;2023-04-03T17:11:34;12.68;;;3.72;;
63046;SDS011;62025;39.238;9.126;2023-04-03T17:14:01;12.98;;;2.95;;
63046;SDS011;62025;39.238;9.126;2023-04-03T17:16:28;8.65;;;3.50;;
63046;SDS011;62025;39.238;9.126;2023-04-03T17:18:55;8.98;;;3.15;;
63046;SDS011;62025;39.238;9.126;2023-04-03T17:21:21;7.38;;;2.70;;
63046;SDS011;62025;39.238;9.126;2023-04-03T17:23:52;11.35;;;3.33;;
63046;SDS011;62025;39.238;9.126;2023-04-03T17:26:23;9.43;;;2.90;;
63046;SDS011;62025;39.238;9.126;2023-04-03T17:28:50;10.65;;;3.00;;
63046;SDS011;62025;39.238;9.126;2023-04-03T17:31:17;9.07;;;3.00;;
63046;SDS011;62025;39.238;9.126;2023-04-03T17:33:43;13.27;;;2.60;;
63046;SDS011;62025;39.238;9.126;2023-04-03T17:36:10;13.10;;;3.20;;